TimeMDT,TemperatureF,Dew PointF,Humidity,Sea Level PressureIn,VisibilityMPH,Wind Direction,Wind SpeedMPH,Gust SpeedMPH,PrecipitationIn,Events,Conditions,WindDirDegrees,DateUTC
12:53 AM,48.9,36.0,61,29.36,10.0,West,17.3,35.7,N/A,,Scattered Clouds,270,2014-03-31 06:53:00
1:53 AM,46.9,37.0,68,29.35,10.0,West,26.5,33.4,N/A,,Overcast,280,2014-03-31 07:53:00
2:53 AM,43.0,36.0,76,29.36,10.0,NNW,21.9,-,N/A,,Mostly Cloudy,340,2014-03-31 08:53:00
3:53 AM,39.9,36.0,86,29.38,10.0,NNW,26.5,36.8,0.00,Rain,Light Rain,340,2014-03-31 09:53:00
4:10 AM,39.9,37.0,89,29.46,10.0,NNW,26.5,39.1,0.00,Rain,Light Rain,330,2014-03-31 10:10:00
4:53 AM,35.1,33.1,92,29.45,5.0,NW,25.3,39.1,0.03,Snow,Light Snow,310,2014-03-31 10:53:00
5:06 AM,34.0,32.0,92,29.51,3.0,NW,26.5,36.8,0.01,Snow,Light Snow,310,2014-03-31 11:06:00
5:13 AM,34.0,32.0,92,29.52,3.0,NW,26.5,36.8,0.01,Snow,Light Snow,310,2014-03-31 11:13:00
5:23 AM,34.0,30.9,89,29.53,2.0,NW,25.3,40.3,0.01,Snow,Light Snow,310,2014-03-31 11:23:00
5:53 AM,33.1,30.9,92,29.52,1.5,WNW,25.3,36.8,0.02,Snow,Light Snow,300,2014-03-31 11:53:00
5:58 AM,33.1,30.9,92,29.56,1.0,NW,25.3,36.8,0.00,Snow,Light Snow,310,2014-03-31 11:58:00
6:07 AM,32.0,30.0,92,29.57,0.5,WNW,39.1,47.2,0.00,Fog-Snow,Snow,300,2014-03-31 12:07:00
6:17 AM,32.0,28.9,88,29.58,0.8,NW,26.5,44.9,0.00,Snow,Light Snow,310,2014-03-31 12:17:00
6:33 AM,32.0,28.9,88,29.60,1.0,NW,28.8,39.1,0.00,Snow,Light Snow,310,2014-03-31 12:33:00
6:37 AM,30.9,28.9,92,29.60,1.5,NW,35.7,43.7,0.00,Snow,Light Snow,320,2014-03-31 12:37:00
6:45 AM,30.9,28.9,92,29.61,1.2,NW,26.5,43.7,0.00,Snow,Light Snow,310,2014-03-31 12:45:00
6:49 AM,30.2,28.4,93,29.61,0.8,NW,29.9,39.1,0.00,Snow,Light Snow,310,2014-03-31 12:49:00
6:53 AM,30.0,28.0,92,29.59,0.8,NW,33.4,42.6,0.00,Snow,Light Snow,310,2014-03-31 12:53:00
7:01 AM,30.0,28.0,92,29.62,0.2,NW,32.2,46.0,0.00,Fog-Snow,Heavy Snow,310,2014-03-31 13:01:00
7:37 AM,28.0,27.0,96,29.66,0.2,NW,32.2,42.6,0.00,Fog-Snow,Heavy Snow,310,2014-03-31 13:37:00
7:48 AM,28.4,26.6,93,29.67,0.2,NW,36.8,46.0,0.00,Fog-Snow,Heavy Snow,310,2014-03-31 13:48:00
7:53 AM,28.0,26.1,92,29.68,0.2,NW,35.7,46.0,0.00,Fog-Snow,Snow,310,2014-03-31 13:53:00
8:18 AM,27.0,26.1,96,29.70,0.5,NW,21.9,-,0.00,Fog-Snow,Snow,320,2014-03-31 14:18:00
8:44 AM,26.1,24.1,92,29.71,0.2,NW,31.1,41.4,0.00,Fog-Snow,Snow,310,2014-03-31 14:44:00
8:53 AM,26.1,24.1,92,29.72,0.2,NW,31.1,39.1,0.00,Fog-Snow,Snow,320,2014-03-31 14:53:00
9:01 AM,25.0,23.0,92,29.71,0.2,NW,32.2,42.6,0.00,Fog-Snow,Heavy Snow,310,2014-03-31 15:01:00
9:37 AM,24.1,21.9,91,29.75,0.2,NNW,25.3,34.5,0.00,Fog-Snow,Light Snow,340,2014-03-31 15:37:00
9:43 AM,24.1,21.0,88,29.76,0.5,NNW,23.0,34.5,0.00,Fog-Snow,Light Snow,340,2014-03-31 15:43:00
9:53 AM,25.0,21.0,85,29.78,0.8,NNW,25.3,34.5,0.00,Snow,Light Snow,330,2014-03-31 15:53:00
10:06 AM,25.0,21.0,85,29.75,1.0,NW,28.8,35.7,0.00,Snow,Light Snow,320,2014-03-31 16:06:00
10:23 AM,24.1,19.9,84,29.77,0.5,NW,27.6,47.2,0.00,Fog-Snow,Light Snow,320,2014-03-31 16:23:00
10:53 AM,24.1,21.0,88,29.84,0.5,NNW,27.6,43.7,0.00,Fog-Snow,Light Snow,340,2014-03-31 16:53:00
11:01 AM,23.0,19.0,85,29.79,1.2,North,21.9,33.4,0.00,Snow,Light Snow,350,2014-03-31 17:01:00
11:04 AM,23.0,18.0,81,29.79,2.0,North,23.0,33.4,0.00,Snow,Light Snow,350,2014-03-31 17:04:00
11:19 AM,24.1,19.9,84,29.79,2.0,NNW,20.7,31.1,0.00,Snow,Light Snow,330,2014-03-31 17:19:00
11:30 AM,25.0,21.0,85,29.78,1.2,NNW,33.4,47.2,0.00,Snow,Light Snow,330,2014-03-31 17:30:00
11:33 AM,25.0,21.0,85,29.79,0.8,NNW,32.2,47.2,0.00,Snow,Light Snow,330,2014-03-31 17:33:00
11:53 AM,26.1,21.9,84,29.82,0.8,NNW,33.4,44.9,0.00,Snow,Light Snow,330,2014-03-31 17:53:00
12:04 PM,27.0,23.0,85,29.79,1.2,NNW,28.8,41.4,0.00,,Overcast,330,2014-03-31 18:04:00
12:07 PM,27.0,21.9,81,29.78,2.0,NNW,26.5,36.8,0.00,,Overcast,330,2014-03-31 18:07:00
12:12 PM,27.0,23.0,85,29.78,3.0,NNW,27.6,38.0,0.00,Snow,Light Snow,330,2014-03-31 18:12:00
12:44 PM,28.0,23.0,81,29.81,7.0,NNW,36.8,48.3,0.00,,Overcast,330,2014-03-31 18:44:00
12:53 PM,28.0,23.0,81,29.85,7.0,NNW,35.7,43.7,0.00,,Overcast,330,2014-03-31 18:53:00
1:44 PM,30.9,24.1,76,29.83,10.0,NNW,35.7,49.5,N/A,,Scattered Clouds,330,2014-03-31 19:44:00
1:53 PM,30.9,24.1,76,29.87,10.0,NNW,35.7,48.3,N/A,,Partly Cloudy,330,2014-03-31 19:53:00
2:53 PM,32.0,25.0,75,29.92,10.0,NNW,33.4,43.7,N/A,,Scattered Clouds,330,2014-03-31 20:53:00
3:53 PM,33.1,26.1,75,29.97,10.0,NNW,25.3,32.2,N/A,,Clear,330,2014-03-31 21:53:00
4:53 PM,34.0,25.0,70,30.01,10.0,NNW,20.7,29.9,N/A,,Clear,330,2014-03-31 22:53:00
5:53 PM,33.1,24.1,70,30.04,10.0,North,20.7,-,N/A,,Clear,360,2014-03-31 23:53:00
6:53 PM,30.9,23.0,72,30.08,10.0,North,16.1,-,N/A,,Clear,350,2014-04-01 00:53:00
7:53 PM,27.0,21.9,81,30.10,10.0,North,9.2,-,N/A,,Clear,360,2014-04-01 01:53:00
8:53 PM,24.1,21.0,88,30.15,10.0,NNE,9.2,-,N/A,,Clear,20,2014-04-01 02:53:00
9:53 PM,23.0,19.0,85,30.12,10.0,NNE,10.4,-,N/A,,Clear,30,2014-04-01 03:53:00
10:53 PM,21.0,17.1,85,30.15,10.0,NE,4.6,-,N/A,,Clear,50,2014-04-01 04:53:00
11:53 PM,19.0,15.1,85,30.13,10.0,NE,8.1,-,N/A,,Clear,40,2014-04-01 05:53:00